Marble Falls, TX (78654)

11:22 AM CDT on September 05, 2015 (GMT -0500)
The Waterlands | | Change Station
CLOSE
Current Station
Personal Weather Station
Location: Horseshoe Bay, TX
Elevation: 837 ft
Nearby Weather Stations

Elev 837 ft 30.55 °N, 98.35 °W | Updated 16 seconds ago

Scattered Clouds
Scattered Clouds
87.3 °F
Feels Like 91 °F
N
2.0
Wind Variable Wind from ESE
Gusts 5.0 mph

Today
High -- | Low -- °F
--% Chance of Precip.
Yesterday
High -- | Low -- °F
Precip. -- in
7:12 AM 7:51 PM
Waning Gibbous, 47% visible
Pressure 30.04 in
Visibility 10.0 miles
Clouds Scattered Clouds 3500 ft
Heat Index 91 °F
Dew Point 68 °F
Humidity 54%
Rainfall 0.00 in
Snow Depth Not available.
UV 6 out of 12
Pollen 8.10 out of 12
Air Quality Not available.
Flu Activity Not available.
METAR KDZB 051615Z AUTO 17009G16KT 10SM SCT035 32/21 A3004 RMK AO2 T03180213
Pressure 30.04 in
Visibility 10.0 miles
Clouds Scattered Clouds 3500 ft
Heat Index 91 °F
Dew Point 68 °F
Humidity 54%
Rainfall 0.00 in
Snow Depth Not available.
UV 6 out of 12
Pollen 8.10 out of 12
Air Quality Not available.
Flu Activity Not available.
METAR KDZB 051615Z AUTO 17009G16KT 10SM SCT035 32/21 A3004 RMK AO2 T03180213

10-Day Weather Forecast

×

Almanac

Astronomy

Sep. 05, 2015 Rise Set
Actual Time
Civil Twilight
Nautical Twilight
Astronomical Twilight
Moon
Length of Visible Light
Length of Day
Tomorrow will be .
, % of the Moon is Illuminated

Today's Extremes

State Highs State Lows

Community

WunderPhotos

Upload Photos

1,852,495 photos uploaded!

WunderBlogs® & News

Nearby

Air Quality

  Air Quality AQ Index Pollutant
Not available.

Snow Depth

Station Depth Elevation

Earthquake Activity

City Distance Mag. Time & Date
Minimum magnitude displayed is 2.5.

Coastal Water Temperatures

Place Temperature

Stations

Nearby Weather Stations

Station Location Temp. Windchill Dew Point Humidity Wind Precip. Elev Updated Type